createdAt,value
2018-08-28T00:01:10.512Z,74.07
2018-08-28T00:03:39.217Z,74.97
2018-08-28T00:06:08.168Z,74.55
2018-08-28T00:08:36.787Z,73.96
2018-08-28T00:11:05.737Z,73.12
2018-08-28T00:13:34.644Z,73.15
2018-08-28T00:16:03.906Z,72.42
2018-08-28T00:18:32.785Z,72.74
2018-08-28T00:21:01.821Z,72.87
2018-08-28T00:23:31.430Z,71.92
2018-08-28T00:26:04.801Z,71.65
2018-08-28T00:28:33.471Z,72.63
2018-08-28T00:31:06.041Z,72.71
2018-08-28T00:33:35.001Z,72.67
2018-08-28T00:36:05.091Z,72.90
2018-08-28T00:38:33.673Z,71.96
2018-08-28T00:41:03.073Z,72.82
2018-08-28T00:43:33.857Z,72.07
2018-08-28T00:46:03.159Z,72.54
2018-08-28T00:48:32.759Z,72.05
2018-08-28T00:51:07.140Z,71.76
2018-08-28T00:53:35.743Z,71.94
2018-08-28T00:56:04.969Z,71.79
2018-08-28T00:58:33.832Z,72.12
2018-08-28T01:01:02.453Z,71.79
2018-08-28T01:03:31.095Z,71.33
2018-08-28T01:06:00.170Z,70.51
2018-08-28T01:08:29.045Z,71.01
2018-08-28T01:10:58.402Z,70.95
2018-08-28T01:13:27.398Z,70.39
2018-08-28T01:15:56.362Z,70.29
2018-08-28T01:18:25.203Z,71.04
2018-08-28T01:20:54.209Z,70.12
2018-08-28T01:23:23.152Z,70.23
2018-08-28T01:25:51.936Z,70.58
2018-08-28T01:28:24.371Z,70.67
2018-08-28T01:30:53.033Z,70.75
2018-08-28T01:33:21.680Z,70.93
2018-08-28T01:35:50.617Z,70.58
2018-08-28T01:38:19.385Z,70.54
2018-08-28T01:40:48.157Z,70.27
2018-08-28T01:45:56.312Z,70.53
2018-08-28T01:48:40.037Z,70.09
2018-08-28T01:51:08.782Z,70.02
2018-08-28T01:53:38.270Z,69.28
2018-08-28T01:56:09.713Z,68.83
2018-08-28T01:58:38.662Z,68.51
2018-08-28T02:01:08.280Z,68.45
2018-08-28T02:03:36.939Z,68.11
2018-08-28T02:06:05.582Z,68.23
2018-08-28T02:08:35.208Z,68.64
2018-08-28T02:11:03.958Z,68.13
2018-08-28T02:13:32.786Z,67.96
2018-08-28T02:16:05.533Z,67.53
2018-08-28T02:18:34.242Z,67.04
2018-08-28T02:21:03.162Z,67.22
2018-08-28T02:23:34.908Z,67.23
2018-08-28T02:26:04.365Z,66.66
2018-08-28T02:28:33.299Z,66.98
2018-08-28T02:31:02.003Z,66.37
2018-08-28T02:33:31.256Z,66.47
2018-08-28T02:36:00.055Z,67.15
2018-08-28T02:38:28.843Z,66.71
2018-08-28T02:40:57.526Z,67.39
2018-08-28T02:43:26.955Z,67.25
2018-08-28T02:45:56.866Z,67.15
2018-08-28T02:48:25.511Z,67.65
2018-08-28T02:50:54.093Z,66.76
2018-08-28T02:53:23.175Z,67.11
2018-08-28T02:55:58.849Z,67.03
2018-08-28T02:58:27.535Z,67.19
2018-08-28T03:00:56.484Z,67.09
2018-08-28T03:03:25.218Z,67.29
2018-08-28T03:05:53.912Z,67.04
2018-08-28T03:08:22.845Z,67.45
2018-08-28T03:10:51.625Z,67.51
2018-08-28T03:13:20.235Z,67.43
2018-08-28T03:15:49.450Z,67.66
2018-08-28T03:18:22.075Z,67.68
2018-08-28T03:20:50.712Z,68.02
2018-08-28T03:23:20.701Z,68.91
2018-08-28T03:25:49.427Z,68.43
2018-08-28T03:28:29.185Z,68.53
2018-08-28T03:30:57.808Z,68.57
2018-08-28T03:33:26.469Z,67.92
2018-08-28T03:35:59.443Z,68.22
2018-08-28T03:38:28.298Z,68.39
2018-08-28T03:40:57.049Z,67.98
2018-08-28T03:43:32.025Z,68.28
2018-08-28T03:46:00.810Z,68.27
2018-08-28T03:48:29.737Z,68.35
2018-08-28T03:50:58.426Z,68.46
2018-08-28T03:53:27.795Z,68.52
2018-08-28T03:55:56.688Z,68.70
2018-08-28T03:58:25.349Z,68.44
2018-08-28T04:00:54.036Z,69.27
2018-08-28T04:03:23.073Z,69.12
2018-08-28T04:05:51.676Z,68.97
2018-08-28T04:08:20.315Z,69.29
2018-08-28T04:10:49.293Z,69.58
2018-08-28T04:13:17.964Z,69.39
2018-08-28T04:15:48.693Z,69.22
2018-08-28T04:18:17.756Z,69.05
2018-08-28T04:20:50.099Z,69.92
2018-08-28T04:23:18.812Z,69.31
2018-08-28T04:25:47.431Z,69.16
2018-08-28T04:28:17.757Z,70.04
2018-08-28T04:30:46.668Z,69.60
2018-08-28T04:33:16.105Z,69.16
2018-08-28T04:35:44.758Z,69.73
2018-08-28T04:38:13.703Z,69.34
2018-08-28T04:40:42.341Z,68.82
2018-08-28T04:43:21.807Z,68.67
2018-08-28T04:45:50.733Z,69.32
2018-08-28T04:48:19.530Z,68.95
2018-08-28T04:50:52.586Z,69.07
2018-08-28T04:53:21.495Z,69.43
2018-08-28T04:56:01.077Z,69.22
2018-08-28T04:58:32.769Z,69.25
2018-08-28T05:01:01.495Z,69.89
2018-08-28T05:03:30.222Z,70.01
2018-08-28T05:05:59.247Z,70.14
2018-08-28T05:08:27.948Z,70.00
2018-08-28T05:10:56.552Z,69.10
2018-08-28T05:13:27.178Z,69.25
2018-08-28T05:15:55.881Z,68.93
2018-08-28T05:18:24.524Z,69.21
2018-08-28T05:20:53.515Z,68.97
2018-08-28T05:23:22.523Z,68.99
2018-08-28T05:25:53.488Z,68.45
2018-08-28T05:28:22.238Z,68.87
2018-08-28T05:30:52.393Z,69.40
2018-08-28T05:33:21.466Z,68.64
2018-08-28T05:35:50.276Z,68.41
2018-08-28T05:38:19.407Z,68.81
2018-08-28T05:40:48.105Z,68.16
2018-08-28T05:43:19.781Z,68.28
2018-08-28T05:45:48.815Z,68.37
2018-08-28T05:48:18.172Z,67.39
2018-08-28T05:50:47.089Z,67.93
2018-08-28T05:53:16.200Z,67.72
2018-08-28T05:55:47.600Z,67.88
2018-08-28T05:58:17.688Z,66.57
2018-08-28T06:00:46.708Z,66.50
2018-08-28T06:03:21.422Z,65.36
2018-08-28T06:05:50.048Z,64.72
2018-08-28T06:08:22.320Z,65.50
2018-08-28T06:10:51.082Z,65.57
2018-08-28T06:13:20.162Z,64.54
2018-08-28T06:18:22.744Z,64.10
2018-08-28T06:21:03.163Z,64.58
2018-08-28T06:26:11.586Z,64.14
2018-08-28T06:28:40.649Z,63.08
2018-08-28T06:31:09.565Z,62.78
2018-08-28T06:33:38.578Z,63.14
2018-08-28T06:36:11.103Z,62.39
2018-08-28T06:38:39.798Z,62.72
2018-08-28T06:41:10.545Z,62.29
2018-08-28T06:43:39.225Z,61.94
2018-08-28T06:46:09.440Z,61.95
2018-08-28T06:48:38.412Z,61.57
2018-08-28T06:51:07.159Z,61.71
2018-08-28T06:53:38.676Z,61.62
2018-08-28T06:56:07.724Z,61.58
2018-08-28T06:58:36.652Z,61.52
2018-08-28T07:01:05.332Z,60.96
2018-08-28T07:03:34.304Z,60.55
2018-08-28T07:06:05.997Z,60.40
2018-08-28T07:08:37.415Z,60.62
2018-08-28T07:11:06.563Z,60.61
2018-08-28T07:13:35.313Z,60.16
2018-08-28T07:16:04.761Z,59.72
2018-08-28T07:18:37.329Z,59.90
2018-08-28T07:21:06.091Z,60.15
2018-08-28T07:23:38.471Z,60.99
2018-08-28T07:26:07.240Z,60.52
2018-08-28T07:28:39.226Z,59.93
2018-08-28T07:31:08.228Z,60.07
2018-08-28T07:33:41.797Z,60.05
2018-08-28T07:36:10.512Z,59.92
2018-08-28T07:38:39.298Z,59.66
2018-08-28T07:41:08.060Z,59.33
2018-08-28T07:43:37.044Z,60.10
2018-08-28T07:46:05.745Z,59.32
2018-08-28T07:48:34.425Z,58.31
2018-08-28T07:51:03.542Z,58.34
2018-08-28T07:53:35.011Z,57.88
2018-08-28T07:56:04.504Z,57.16
2018-08-28T07:58:33.521Z,55.34
2018-08-28T08:01:07.623Z,54.26
2018-08-28T08:03:36.281Z,55.08
2018-08-28T08:06:05.966Z,54.58
2018-08-28T08:08:34.673Z,54.99
2018-08-28T08:11:03.581Z,53.77
2018-08-28T08:13:32.344Z,53.09
2018-08-28T08:16:01.030Z,53.50
2018-08-28T08:18:29.784Z,53.23
2018-08-28T08:20:58.555Z,52.57
2018-08-28T08:23:31.386Z,51.67
2018-08-28T08:26:00.065Z,51.82
2018-08-28T08:28:28.793Z,53.27
2018-08-28T08:30:57.669Z,53.05
2018-08-28T08:33:26.300Z,52.51
2018-08-28T08:35:55.309Z,52.25
2018-08-28T08:38:24.124Z,51.43
2018-08-28T08:40:52.849Z,51.65
2018-08-28T08:43:21.880Z,51.78
2018-08-28T08:45:50.635Z,50.92
2018-08-28T08:48:19.386Z,50.00
2018-08-28T08:50:48.386Z,49.70
2018-08-28T08:53:17.093Z,49.73
2018-08-28T08:58:20.958Z,50.54
2018-08-28T09:00:49.651Z,49.96
2018-08-28T09:03:18.402Z,50.31
2018-08-28T09:05:47.448Z,49.87
2018-08-28T09:08:16.469Z,48.09
2018-08-28T09:10:45.225Z,47.81
2018-08-28T09:13:14.306Z,46.33
2018-08-28T09:15:44.725Z,46.60
2018-08-28T09:18:13.449Z,45.97
2018-08-28T09:20:42.404Z,45.41
2018-08-28T09:23:11.229Z,44.62
2018-08-28T09:25:40.005Z,44.87
2018-08-28T09:28:09.088Z,45.13
2018-08-28T09:30:37.836Z,44.06
2018-08-28T09:33:06.600Z,43.81
2018-08-28T09:35:35.813Z,43.80
2018-08-28T09:38:05.228Z,44.48
2018-08-28T09:40:34.034Z,43.70
2018-08-28T09:43:03.061Z,43.32
2018-08-28T09:45:42.611Z,42.59
2018-08-28T09:48:11.769Z,42.89
2018-08-28T09:50:40.464Z,42.71
2018-08-28T09:53:09.167Z,42.18
2018-08-28T09:55:43.421Z,41.82
2018-08-28T09:58:12.085Z,42.08
2018-08-28T10:00:45.911Z,40.71
2018-08-28T10:03:15.868Z,40.34
2018-08-28T10:05:44.583Z,40.31
2018-08-28T10:08:13.600Z,39.97
2018-08-28T10:10:42.272Z,40.59
2018-08-28T10:13:11.185Z,40.55
2018-08-28T10:15:50.740Z,39.91
2018-08-28T10:18:25.846Z,38.02
2018-08-28T10:20:54.762Z,37.86
2018-08-28T10:23:24.011Z,37.03
2018-08-28T10:25:53.081Z,37.54
2018-08-28T10:28:21.806Z,37.07
2018-08-28T10:30:50.513Z,36.58
2018-08-28T10:33:22.574Z,37.11
2018-08-28T10:35:51.260Z,36.88
2018-08-28T10:38:25.914Z,35.77
2018-08-28T10:40:55.908Z,36.05
2018-08-28T10:43:29.854Z,34.87
2018-08-28T10:45:58.684Z,33.79
2018-08-28T10:48:27.414Z,34.54
2018-08-28T10:53:30.057Z,34.59
2018-08-28T10:56:04.399Z,33.45
2018-08-28T10:58:33.224Z,33.22
2018-08-28T11:01:02.224Z,32.05
2018-08-28T11:03:42.142Z,33.28
2018-08-28T11:06:11.529Z,33.64
2018-08-28T11:08:40.243Z,32.44
2018-08-28T11:11:09.053Z,31.82
2018-08-28T11:13:38.110Z,30.41
2018-08-28T11:16:06.944Z,30.48
2018-08-28T11:18:35.615Z,31.45
2018-08-28T11:21:04.388Z,30.41
2018-08-28T11:23:33.111Z,30.86
2018-08-28T11:26:03.793Z,30.76
2018-08-28T11:28:32.682Z,30.31
2018-08-28T11:31:01.368Z,29.09
2018-08-28T11:33:30.158Z,28.72
2018-08-28T11:36:02.462Z,27.69
2018-08-28T11:38:31.290Z,28.01
2018-08-28T11:40:59.908Z,29.21
2018-08-28T11:43:28.522Z,28.91
2018-08-28T11:46:05.676Z,29.94
2018-08-28T11:48:34.374Z,29.12
2018-08-28T11:51:03.220Z,28.19
2018-08-28T11:53:33.412Z,28.69
2018-08-28T11:58:37.444Z,27.37
2018-08-28T12:01:06.719Z,28.44
2018-08-28T12:03:35.452Z,27.08
2018-08-28T12:06:04.979Z,27.47
2018-08-28T12:08:34.378Z,27.12
2018-08-28T12:11:03.189Z,25.89
2018-08-28T12:13:32.007Z,26.77
2018-08-28T12:16:01.119Z,25.35
2018-08-28T12:18:34.884Z,25.71
2018-08-28T12:21:03.744Z,25.36
2018-08-28T12:23:33.452Z,25.42
2018-08-28T12:26:02.730Z,25.21
2018-08-28T12:28:31.404Z,24.24
2018-08-28T12:31:00.449Z,24.51
2018-08-28T12:33:29.259Z,24.99
2018-08-28T12:36:00.383Z,24.61
2018-08-28T12:38:30.482Z,25.99
2018-08-28T12:40:59.373Z,25.65
2018-08-28T12:43:28.101Z,25.45
2018-08-28T12:45:59.110Z,24.42
2018-08-28T12:48:30.202Z,24.62
2018-08-28T12:50:58.967Z,24.43
2018-08-28T12:53:29.012Z,24.49
2018-08-28T12:55:57.930Z,24.60
2018-08-28T12:58:27.233Z,23.84
2018-08-28T13:00:56.281Z,23.76
2018-08-28T13:03:25.133Z,23.92
2018-08-28T13:05:53.933Z,24.61
2018-08-28T13:08:23.070Z,22.97
2018-08-28T13:10:51.931Z,22.99
2018-08-28T13:13:21.246Z,21.78
2018-08-28T13:15:50.288Z,21.32
2018-08-28T13:18:19.017Z,21.01
2018-08-28T13:20:47.836Z,20.30
2018-08-28T13:23:17.649Z,20.75
2018-08-28T13:25:46.508Z,20.24
2018-08-28T13:28:16.953Z,20.33
2018-08-28T13:30:45.877Z,19.87
2018-08-28T13:33:21.054Z,19.26
2018-08-28T13:35:49.927Z,19.80
2018-08-28T13:38:23.746Z,19.54
2018-08-28T13:40:52.677Z,18.85
2018-08-28T13:43:21.385Z,18.99
2018-08-28T13:45:51.506Z,19.11
2018-08-28T13:48:20.188Z,18.67
2018-08-28T13:50:48.991Z,19.44
2018-08-28T13:53:18.013Z,18.68
2018-08-28T13:55:46.713Z,18.55
2018-08-28T13:58:15.438Z,18.46
2018-08-28T14:00:44.521Z,17.90
2018-08-28T14:03:20.266Z,17.53
2018-08-28T14:05:49.197Z,16.98
2018-08-28T14:08:17.933Z,16.33
2018-08-28T14:10:51.898Z,16.46
2018-08-28T14:13:21.064Z,15.67
2018-08-28T14:15:51.397Z,15.96
2018-08-28T14:18:20.125Z,15.53
2018-08-28T14:20:56.505Z,16.53
2018-08-28T14:23:25.209Z,15.67
2018-08-28T14:25:54.626Z,16.13
2018-08-28T14:28:23.700Z,15.24
2018-08-28T14:30:52.368Z,16.01
2018-08-28T14:33:22.034Z,15.37
2018-08-28T14:35:51.131Z,15.11
2018-08-28T14:38:19.839Z,14.43
2018-08-28T14:40:48.553Z,14.44
2018-08-28T14:43:17.518Z,15.40
2018-08-28T14:45:46.158Z,15.13
2018-08-28T14:48:14.942Z,15.38
2018-08-28T14:50:43.978Z,14.64
2018-08-28T14:53:12.964Z,14.99
2018-08-28T14:55:41.681Z,14.77
2018-08-28T14:58:12.609Z,15.12
2018-08-28T15:00:41.330Z,15.22
2018-08-28T15:03:10.090Z,15.02
2018-08-28T15:05:39.125Z,15.66
2018-08-28T15:08:07.894Z,14.96
2018-08-28T15:10:36.688Z,14.68
2018-08-28T15:13:06.055Z,15.56
2018-08-28T15:15:34.700Z,15.41
2018-08-28T15:18:04.581Z,15.94
2018-08-28T15:20:33.645Z,15.91
2018-08-28T15:23:02.354Z,16.21
2018-08-28T15:25:31.219Z,15.85
2018-08-28T15:28:03.701Z,16.47
2018-08-28T15:30:32.486Z,16.97
2018-08-28T15:33:08.197Z,16.67
2018-08-28T15:35:37.628Z,16.72
2018-08-28T15:38:06.371Z,16.47
2018-08-28T15:40:35.087Z,16.98
2018-08-28T15:43:11.107Z,17.00
2018-08-28T15:45:39.700Z,16.58
2018-08-28T15:48:09.155Z,17.07
2018-08-28T15:50:38.297Z,17.54
2018-08-28T15:53:07.028Z,18.07
2018-08-28T15:55:35.745Z,17.81
2018-08-28T15:58:06.018Z,17.99
2018-08-28T16:00:34.702Z,18.62
2018-08-28T16:03:03.500Z,19.14
2018-08-28T16:05:33.413Z,19.00
2018-08-28T16:08:02.761Z,18.54
2018-08-28T16:10:31.459Z,20.13
2018-08-28T16:13:00.561Z,19.60
2018-08-28T16:15:29.240Z,19.60
2018-08-28T16:17:58.038Z,20.69
2018-08-28T16:20:30.541Z,21.06
2018-08-28T16:23:01.853Z,20.77
2018-08-28T16:25:30.713Z,22.23
2018-08-28T16:27:59.630Z,22.57
2018-08-28T16:30:28.291Z,22.25
2018-08-28T16:32:56.961Z,21.93
2018-08-28T16:35:30.932Z,22.38
2018-08-28T16:37:59.871Z,22.57
2018-08-28T16:40:29.392Z,22.71
2018-08-28T16:43:00.467Z,23.72
2018-08-28T16:45:29.126Z,24.21
2018-08-28T16:47:57.866Z,24.46
2018-08-28T16:50:28.020Z,24.58
2018-08-28T16:52:56.716Z,24.81
2018-08-28T16:55:25.491Z,24.27
2018-08-28T16:57:54.524Z,24.78
2018-08-28T17:00:23.180Z,24.76
2018-08-28T17:02:56.872Z,24.68
2018-08-28T17:05:25.827Z,24.15
2018-08-28T17:07:58.241Z,25.07
2018-08-28T17:10:27.001Z,25.58
2018-08-28T17:12:56.049Z,26.36
2018-08-28T17:15:24.746Z,26.34
2018-08-28T17:17:55.113Z,28.03
2018-08-28T17:20:24.096Z,27.90
2018-08-28T17:22:52.842Z,27.94
2018-08-28T17:25:26.498Z,27.91
2018-08-28T17:27:55.185Z,29.09
2018-08-28T17:30:23.821Z,29.75
2018-08-28T17:32:52.567Z,29.49
2018-08-28T17:35:21.571Z,29.58
2018-08-28T17:37:52.309Z,29.36
2018-08-28T17:40:20.962Z,29.86
2018-08-28T17:45:24.461Z,30.08
2018-08-28T17:47:53.371Z,31.00
2018-08-28T17:50:22.462Z,31.24
2018-08-28T17:52:51.148Z,31.52
2018-08-28T17:55:19.776Z,30.97
2018-08-28T17:57:48.717Z,31.86
2018-08-28T18:02:51.942Z,31.43
2018-08-28T18:05:26.386Z,32.45
2018-08-28T18:07:55.153Z,32.14
2018-08-28T18:10:29.025Z,32.32
2018-08-28T18:12:57.766Z,32.59
2018-08-28T18:15:26.451Z,32.39
2018-08-28T18:17:55.504Z,32.47
2018-08-28T18:20:24.334Z,32.87
2018-08-28T18:22:58.832Z,32.52
2018-08-28T18:25:27.501Z,32.11
2018-08-28T18:27:56.226Z,32.67
2018-08-28T18:30:29.072Z,33.48
2018-08-28T18:32:57.903Z,33.28
2018-08-28T18:38:00.369Z,33.20
2018-08-28T18:40:31.892Z,33.02
2018-08-28T18:43:00.554Z,33.39
2018-08-28T18:45:29.263Z,33.46
2018-08-28T18:47:57.991Z,34.16
2018-08-28T18:50:30.260Z,34.45
2018-08-28T18:52:59.013Z,34.48
2018-08-28T18:55:27.737Z,34.49
2018-08-28T18:57:56.343Z,34.35
2018-08-28T19:00:29.030Z,34.16
2018-08-28T19:02:58.105Z,35.15
2018-08-28T19:08:06.198Z,34.66
2018-08-28T19:10:34.861Z,36.10
2018-08-28T19:13:08.481Z,35.37
2018-08-28T19:15:37.251Z,35.51
2018-08-28T19:18:05.972Z,36.10
2018-08-28T19:20:34.805Z,35.76
2018-08-28T19:23:04.793Z,35.30
2018-08-28T19:25:36.341Z,36.29
2018-08-28T19:28:06.344Z,35.85
2018-08-28T19:30:35.329Z,35.73
2018-08-28T19:33:18.483Z,35.68
2018-08-28T19:35:48.584Z,36.40
2018-08-28T19:38:17.421Z,35.98
2018-08-28T19:43:35.439Z,35.86
2018-08-28T19:46:04.590Z,36.37
2018-08-28T19:48:33.597Z,35.63
2018-08-28T19:51:02.285Z,35.75
2018-08-28T19:53:31.678Z,36.47
2018-08-28T19:56:00.738Z,36.03
2018-08-28T19:58:29.356Z,36.21
2018-08-28T20:00:58.021Z,36.80
2018-08-28T20:03:27.149Z,36.96
2018-08-28T20:05:55.987Z,36.45
2018-08-28T20:08:24.498Z,36.83
2018-08-28T20:10:53.509Z,37.91
2018-08-28T20:13:22.161Z,37.52
2018-08-28T20:15:50.850Z,36.75
2018-08-28T20:18:19.792Z,37.40
2018-08-28T20:20:48.594Z,37.71
2018-08-28T20:23:17.291Z,38.05
2018-08-28T20:25:46.190Z,38.00
2018-08-28T20:28:14.857Z,38.14
2018-08-28T20:30:49.696Z,38.03
2018-08-28T20:33:18.345Z,37.68
2018-08-28T20:35:46.976Z,37.84
2018-08-28T20:41:57.650Z,37.94
2018-08-28T20:44:26.643Z,38.76
2018-08-28T20:47:06.173Z,38.63
2018-08-28T20:49:35.034Z,39.05
2018-08-28T20:52:04.866Z,38.60
2018-08-28T20:54:33.675Z,38.46
2018-08-28T20:57:02.617Z,39.56
2018-08-28T20:59:37.400Z,38.92
2018-08-28T21:02:06.233Z,39.19
2018-08-28T21:04:35.557Z,39.99
2018-08-28T21:07:06.320Z,39.95
2018-08-28T21:09:35.451Z,40.47
2018-08-28T21:12:07.464Z,40.49
2018-08-28T21:14:36.187Z,40.81
2018-08-28T21:17:08.153Z,40.30
2018-08-28T21:19:40.381Z,41.02
2018-08-28T21:22:09.570Z,41.70
2018-08-28T21:24:39.218Z,42.13
2018-08-28T21:27:09.247Z,42.39
2018-08-28T21:29:37.895Z,41.87
2018-08-28T21:32:06.606Z,42.09
2018-08-28T21:34:38.520Z,42.48
2018-08-28T21:37:21.140Z,42.73
2018-08-28T21:39:57.533Z,43.08
2018-08-28T21:42:26.121Z,42.52
2018-08-28T21:44:57.824Z,42.98
2018-08-28T21:47:28.051Z,42.57
2018-08-28T21:49:56.671Z,43.62
2018-08-28T21:52:27.177Z,43.50
2018-08-28T21:54:56.001Z,43.56
2018-08-28T21:57:38.209Z,42.96
2018-08-28T22:00:14.001Z,44.03
2018-08-28T22:02:43.185Z,43.70
2018-08-28T22:05:19.991Z,43.27
2018-08-28T22:07:48.703Z,44.38
2018-08-28T22:10:17.453Z,44.13
2018-08-28T22:12:46.097Z,43.86
2018-08-28T22:15:15.265Z,44.67
2018-08-28T22:17:43.887Z,44.40
2018-08-28T22:20:12.488Z,44.03
2018-08-28T22:22:41.520Z,45.01
2018-08-28T22:25:10.388Z,44.68
2018-08-28T22:27:39.338Z,45.41
2018-08-28T22:30:09.081Z,44.66
2018-08-28T22:32:37.783Z,44.70
2018-08-28T22:35:11.410Z,45.50
2018-08-28T22:37:40.278Z,45.45
2018-08-28T22:40:10.523Z,45.91
2018-08-28T22:42:39.227Z,45.22
2018-08-28T22:45:08.404Z,45.27
2018-08-28T22:47:36.944Z,45.50
2018-08-28T22:50:06.649Z,45.27
2018-08-28T22:52:35.248Z,45.45
2018-08-28T22:55:04.249Z,44.96
2018-08-28T22:57:33.073Z,46.39
2018-08-28T23:00:01.740Z,46.31
2018-08-28T23:02:30.733Z,45.92
2018-08-28T23:05:04.556Z,46.39
2018-08-28T23:07:33.260Z,45.88
2018-08-28T23:10:08.041Z,46.80
2018-08-28T23:12:36.785Z,46.29
2018-08-28T23:15:06.912Z,46.45
2018-08-28T23:17:35.961Z,46.70
2018-08-28T23:20:08.024Z,46.56
2018-08-28T23:22:36.725Z,48.12
2018-08-28T23:25:10.638Z,48.08
2018-08-28T23:27:50.034Z,48.08
2018-08-28T23:30:19.258Z,48.75
2018-08-28T23:32:50.235Z,47.96
2018-08-28T23:35:18.892Z,48.00
2018-08-28T23:37:47.841Z,48.95
2018-08-28T23:40:16.563Z,48.86
2018-08-28T23:42:45.164Z,48.56
2018-08-28T23:45:14.308Z,48.71
2018-08-28T23:47:42.941Z,48.71
2018-08-28T23:50:11.645Z,48.75
2018-08-28T23:52:40.784Z,48.47
2018-08-28T23:55:12.442Z,48.60
2018-08-28T23:57:41.115Z,48.86
